West Point, NE

5:31 AM CST on February 28, 2017 (GMT -0600)
Skywave Wireless, Inc. | | Change Station

Elev 1312 ft 41.84 °N, 96.71 °W | Updated 60 seconds ago

Mostly Cloudy
Mostly Cloudy
37.9 °F
Feels Like 38 °F
N
2.7
Wind Variable Wind from SSE
Gusts 4.9 mph

Today
High -- | Low -- °F
--% Chance of Precip.
Yesterday
High -- | Low -- °F
Precip. -- in
Pressure 29.57 in
Visibility 10.0 miles
Clouds Mostly Cloudy 2600 ft
Overcast 3200 ft
Windchill 38 °F
Dew Point 33 °F
Humidity 83%
Rainfall 0.00 in
Snow Depth Not available.
7:02 AM 6:16 PM
Waxing Crescent, 4% visible
SPECI KTQE 281104Z AUTO 32006KT 10SM BKN026 OVC032 02/00 A2957 RMK AO2 T00220000
Pressure 29.57 in
Visibility 10.0 miles
Clouds Mostly Cloudy 2600 ft
Overcast 3200 ft
Windchill 38 °F
Dew Point 33 °F
Humidity 83%
Rainfall 0.00 in
Snow Depth Not available.
7:02 AM 6:16 PM
Waxing Crescent, 4% visible
SPECI KTQE 281104Z AUTO 32006KT 10SM BKN026 OVC032 02/00 A2957 RMK AO2 T00220000

Get Your Daily Forecast Email!

Thanks for signing up!

Be on the lookout for a verification email in your inbox.

You'll start receiving the daily forecast at 8 AM.

×

10-Day Weather Forecast

Almanac

Astronomy

Feb. 28, 2017 Rise Set
Actual Time
Civil Twilight
Nautical Twilight
Astronomical Twilight
Moon
Length of Visible Light
Length of Day
Tomorrow will be .
, % of the Moon is Illuminated

Today's Extremes

State Highs State Lows

Community

WunderPhotos

Upload Photos

1,962,540 photos uploaded!

WunderBlog® & News

Nearby

Air Quality

  Air Quality AQ Index Pollutant
Not available.

Snow Depth

Station Depth Elevation

Earthquake Activity

City Distance Mag. Time & Date
Minimum magnitude displayed is 2.5.

Coastal Water Temperatures

Place Temperature

Stations

Nearby Weather Stations

Station Location Temp. Windchill Dew Point Humidity Wind Precip. Elev Updated Type
                   

Watches & Warnings

There are currently no watches in effect.